Time;durP1;ratioP1;P1;durP2;ratioP2;P2;SDS_P1;SDS_P2;PMS_P1;PMS_P2;Temp;Humidity;BMP_temperature;BMP_pressure;BME280_temperature;BME280_humidity;BME280_pressure;Samples;Min_cycle;Max_cycle;Signal;HPM_P1;HPM_P2
2022/02/26 00:02:21;;;;;;;9.85;4.57;;;0.70;97.70;;;;;;5035076;28;20032;-68
2022/02/26 00:04:47;;;;;;;24.52;11.18;;;0.70;97.60;;;;;;5036144;28;20053;-67
2022/02/26 00:07:15;;;;;;;33.35;15.05;;;0.80;97.60;;;;;;5036945;28;20071;-67
2022/02/26 00:09:40;;;;;;;22.67;10.40;;;0.80;98.00;;;;;;5036100;28;20414;-67
2022/02/26 00:12:08;;;;;;;15.57;8.02;;;0.80;97.80;;;;;;5036820;28;20041;-67
2022/02/26 00:14:35;;;;;;;19.92;8.48;;;0.90;97.90;;;;;;5034884;28;20035;-68
2022/02/26 00:17:02;;;;;;;17.73;8.30;;;0.80;98.00;;;;;;5036322;28;20056;-68
2022/02/26 00:19:28;;;;;;;17.63;7.60;;;0.70;97.90;;;;;;5036618;28;20056;-68
2022/02/26 00:21:54;;;;;;;14.02;5.95;;;0.70;97.90;;;;;;5035802;28;20049;-67
2022/02/26 00:24:20;;;;;;;15.30;6.57;;;0.70;98.00;;;;;;5036155;28;20040;-66
2022/02/26 00:26:46;;;;;;;13.07;6.28;;;0.60;97.80;;;;;;5036007;28;20057;-67
2022/02/26 00:29:12;;;;;;;12.63;6.18;;;0.60;97.60;;;;;;5033464;28;20025;-66
2022/02/26 00:31:38;;;;;;;11.35;5.50;;;0.60;97.60;;;;;;5036061;28;20025;-67
2022/02/26 00:34:04;;;;;;;9.43;5.05;;;0.50;97.30;;;;;;5036414;28;20044;-67
2022/02/26 00:36:30;;;;;;;10.98;5.30;;;0.50;97.20;;;;;;5036486;28;20406;-69
2022/02/26 00:38:56;;;;;;;11.93;5.80;;;0.50;96.70;;;;;;5036211;28;20040;-66
2022/02/26 00:41:22;;;;;;;11.85;5.40;;;0.50;97.30;;;;;;5036646;28;20327;-67
2022/02/26 00:43:47;;;;;;;16.52;6.88;;;0.40;97.00;;;;;;5034549;28;20021;-66
2022/02/26 00:46:13;;;;;;;16.38;6.43;;;0.50;97.10;;;;;;5036182;28;20022;-66
2022/02/26 00:51:24;;;;;;;11.80;5.35;;;0.60;96.70;;;;;;5023664;28;20036;-65
2022/02/26 00:53:50;;;;;;;13.07;6.30;;;0.60;96.70;;;;;;5035669;28;20029;-67
2022/02/26 00:56:16;;;;;;;14.70;6.88;;;0.70;96.80;;;;;;5035098;28;20029;-67
2022/02/26 00:58:44;;;;;;;14.43;7.25;;;0.80;97.00;;;;;;5033664;28;20021;-66
2022/02/26 01:01:12;;;;;;;12.48;6.68;;;0.80;97.30;;;;;;5035754;28;20033;-67
2022/02/26 01:03:38;;;;;;;12.25;6.25;;;0.80;97.60;;;;;;5035040;28;20445;-68
2022/02/26 01:06:04;;;;;;;11.43;6.20;;;0.80;97.70;;;;;;5035679;28;20033;-66
2022/02/26 01:08:33;;;;;;;15.30;5.65;;;0.80;98.00;;;;;;5035771;28;20029;-67
2022/02/26 01:10:59;;;;;;;15.88;7.00;;;0.80;97.80;;;;;;5034048;28;20095;-67
2022/02/26 01:13:28;;;;;;;20.92;6.32;;;0.80;98.00;;;;;;5033144;28;20025;-67
2022/02/26 01:15:54;;;;;;;14.25;6.97;;;0.80;98.00;;;;;;5033758;28;20040;-66
2022/02/26 01:18:20;;;;;;;11.35;6.38;;;0.80;98.00;;;;;;5034196;28;20025;-66
2022/02/26 01:20:46;;;;;;;12.30;6.05;;;0.90;97.90;;;;;;5016725;28;20116;-66
2022/02/26 01:23:12;;;;;;;16.83;6.60;;;0.90;98.00;;;;;;5034567;28;20482;-66
2022/02/26 01:25:38;;;;;;;16.05;6.15;;;0.90;98.00;;;;;;5034494;28;20048;-68
2022/02/26 01:28:04;;;;;;;15.25;6.38;;;0.90;98.00;;;;;;5034978;28;20051;-67
2022/02/26 01:30:30;;;;;;;13.80;6.97;;;0.90;98.00;;;;;;5032709;28;20104;-66
2022/02/26 01:32:56;;;;;;;14.98;6.65;;;0.90;98.00;;;;;;5016971;28;20118;-68
2022/02/26 01:35:25;;;;;;;11.55;5.88;;;0.90;98.00;;;;;;5033339;28;20045;-68
2022/02/26 01:37:51;;;;;;;15.43;6.60;;;0.90;98.00;;;;;;5034450;28;20056;-68
2022/02/26 01:40:17;;;;;;;12.02;6.78;;;0.90;98.00;;;;;;5035099;28;20064;-68
2022/02/26 01:42:43;;;;;;;18.35;7.43;;;0.90;98.00;;;;;;5034540;28;20415;-68
2022/02/26 01:45:13;;;;;;;14.20;7.85;;;0.80;98.00;;;;;;5043841;28;20032;-67
2022/02/26 01:47:39;;;;;;;15.73;6.88;;;0.80;98.00;;;;;;5034084;28;20087;-67
2022/02/26 01:50:09;;;;;;;15.73;6.97;;;0.80;98.00;;;;;;5035568;28;20036;-67
2022/02/26 01:52:35;;;;;;;19.50;7.60;;;0.80;98.00;;;;;;5030041;28;20033;-68
2022/02/26 01:55:04;;;;;;;13.68;6.03;;;0.80;98.00;;;;;;5038007;28;20317;-67
2022/02/26 01:57:30;;;;;;;16.08;6.70;;;0.80;98.00;;;;;;5034163;28;20322;-67
2022/02/26 01:59:57;;;;;;;11.00;5.68;;;0.80;98.00;;;;;;5033163;28;20021;-67
2022/02/26 02:02:22;;;;;;;13.48;5.45;;;0.80;98.00;;;;;;5033572;28;20346;-67
2022/02/26 02:04:48;;;;;;;12.75;5.68;;;0.80;98.00;;;;;;5036003;28;20116;-66
2022/02/26 02:07:14;;;;;;;12.40;6.05;;;0.80;98.00;;;;;;5034778;28;20411;-67
2022/02/26 02:09:43;;;;;;;12.15;6.60;;;0.80;98.00;;;;;;5037341;28;20033;-68
2022/02/26 02:12:11;;;;;;;14.45;6.70;;;0.80;98.00;;;;;;5037714;28;20418;-68
2022/02/26 02:14:37;;;;;;;14.45;6.82;;;0.80;98.00;;;;;;5037173;28;20025;-67
2022/02/26 02:17:04;;;;;;;10.98;5.57;;;0.80;98.00;;;;;;5036566;28;20698;-66
2022/02/26 02:19:30;;;;;;;12.13;6.35;;;0.80;98.00;;;;;;5039448;28;20029;-66
2022/02/26 02:21:56;;;;;;;14.75;6.47;;;0.80;98.00;;;;;;5038661;28;20029;-68
2022/02/26 02:24:23;;;;;;;18.33;7.18;;;0.80;98.00;;;;;;5037752;28;20076;-67
2022/02/26 02:26:51;;;;;;;15.18;7.55;;;0.80;98.00;;;;;;5037336;28;20045;-67
2022/02/26 02:29:17;;;;;;;17.67;7.68;;;0.80;98.00;;;;;;5037072;28;20087;-67
2022/02/26 02:31:44;;;;;;;15.55;6.90;;;0.80;98.00;;;;;;5037148;28;20049;-67
2022/02/26 02:34:10;;;;;;;21.65;7.95;;;0.70;97.90;;;;;;5038344;28;20101;-67
2022/02/26 02:36:43;;;;;;;14.93;6.53;;;0.70;97.90;;;;;;5037492;28;20330;-68
2022/02/26 02:39:10;;;;;;;17.38;7.70;;;0.70;97.90;;;;;;5033333;28;20119;-67
2022/02/26 02:41:36;;;;;;;21.05;7.57;;;0.70;98.00;;;;;;5037717;28;20022;-68
2022/02/26 02:44:02;;;;;;;15.15;6.30;;;0.70;97.70;;;;;;5037096;28;20018;-68
2022/02/26 02:46:28;;;;;;;19.30;6.90;;;0.70;97.80;;;;;;5034931;28;20029;-68
2022/02/26 02:48:56;;;;;;;17.92;7.00;;;0.70;97.60;;;;;;5041394;28;20440;-68
2022/02/26 02:51:22;;;;;;;14.52;6.63;;;0.70;97.80;;;;;;5038050;28;20037;-68
2022/02/26 02:53:48;;;;;;;16.05;6.93;;;0.80;97.90;;;;;;5037670;28;20037;-68
2022/02/26 02:56:14;;;;;;;15.90;6.88;;;0.80;98.00;;;;;;5038049;28;20112;-68
2022/02/26 02:58:40;;;;;;;19.00;8.25;;;0.80;98.00;;;;;;5036990;28;20053;-68
2022/02/26 03:01:06;;;;;;;18.85;8.68;;;0.80;98.00;;;;;;5035936;28;20478;-68
2022/02/26 03:03:32;;;;;;;16.73;7.15;;;0.80;98.00;;;;;;5037626;28;20172;-68
2022/02/26 03:05:58;;;;;;;18.40;7.97;;;0.80;98.00;;;;;;5037707;28;20037;-68
2022/02/26 03:08:24;;;;;;;20.80;7.10;;;0.80;98.00;;;;;;5038223;28;20026;-68
2022/02/26 03:10:57;;;;;;;14.82;6.40;;;0.80;98.00;;;;;;5035523;28;20049;-68
2022/02/26 03:13:26;;;;;;;15.77;6.88;;;0.80;98.00;;;;;;5035967;28;20100;-67
2022/02/26 03:15:54;;;;;;;18.40;7.28;;;0.70;98.00;;;;;;5036710;28;20025;-67
2022/02/26 03:18:22;;;;;;;15.63;7.43;;;0.70;97.90;;;;;;5038042;28;20029;-68
2022/02/26 03:20:49;;;;;;;14.18;7.35;;;0.80;98.00;;;;;;5036547;28;20370;-68
2022/02/26 03:23:15;;;;;;;12.15;6.05;;;0.70;98.00;;;;;;5037174;28;20029;-68
2022/02/26 03:25:41;;;;;;;18.20;7.05;;;0.60;98.00;;;;;;5036750;28;20037;-68
2022/02/26 03:28:08;;;;;;;19.27;7.45;;;0.60;97.80;;;;;;5037578;28;20442;-68
2022/02/26 03:30:34;;;;;;;14.90;8.05;;;0.70;98.00;;;;;;5036116;28;20028;-68
2022/02/26 03:33:01;;;;;;;18.08;9.48;;;0.70;98.00;;;;;;5037523;28;20033;-66
2022/02/26 03:35:27;;;;;;;21.60;7.78;;;0.60;97.90;;;;;;5036363;28;20050;-68
2022/02/26 03:37:53;;;;;;;19.92;8.02;;;0.60;97.70;;;;;;5032374;28;20083;-68
2022/02/26 03:40:19;;;;;;;17.27;7.32;;;0.60;97.80;;;;;;5035588;28;20089;-68
2022/02/26 03:42:48;;;;;;;19.65;7.38;;;0.60;97.80;;;;;;5032428;28;20022;-68
2022/02/26 03:45:14;;;;;;;15.75;7.38;;;0.60;97.60;;;;;;5035190;28;20036;-67
2022/02/26 03:47:41;;;;;;;23.65;8.15;;;0.70;97.70;;;;;;5035899;28;20108;-67
2022/02/26 03:50:08;;;;;;;19.15;8.75;;;0.60;97.50;;;;;;5037849;28;20056;-69
2022/02/26 03:52:34;;;;;;;23.42;8.07;;;0.70;97.50;;;;;;5036674;28;20028;-68
2022/02/26 03:55:04;;;;;;;17.10;7.00;;;0.70;98.00;;;;;;5037967;28;20322;-68
2022/02/26 03:57:34;;;;;;;17.73;7.95;;;0.70;97.90;;;;;;5030506;28;20065;-68
2022/02/26 04:00:00;;;;;;;18.90;7.97;;;0.70;98.00;;;;;;5034982;28;20017;-68
2022/02/26 04:02:26;;;;;;;21.63;7.80;;;0.70;97.80;;;;;;5035238;28;20022;-68
2022/02/26 04:04:53;;;;;;;20.10;7.40;;;0.70;97.80;;;;;;5036519;28;20021;-68
2022/02/26 04:07:19;;;;;;;18.38;8.32;;;0.70;97.70;;;;;;5036669;28;20061;-67
2022/02/26 04:09:45;;;;;;;20.67;8.45;;;0.70;97.80;;;;;;5034310;28;20449;-67
2022/02/26 04:12:14;;;;;;;22.00;7.63;;;0.70;97.90;;;;;;5036203;28;20037;-67
2022/02/26 04:14:40;;;;;;;24.10;8.57;;;0.70;97.70;;;;;;5034831;28;20029;-67
2022/02/26 04:17:07;;;;;;;17.58;7.80;;;0.70;98.00;;;;;;5034379;28;20442;-67
2022/02/26 04:19:33;;;;;;;21.50;8.10;;;0.70;97.70;;;;;;5036112;28;20044;-67
2022/02/26 04:21:59;;;;;;;21.88;8.25;;;0.70;97.80;;;;;;5035343;28;20057;-68
2022/02/26 04:24:25;;;;;;;22.13;8.82;;;0.70;97.90;;;;;;5035011;28;20056;-68
2022/02/26 04:26:51;;;;;;;20.00;8.63;;;0.60;98.00;;;;;;5035613;28;20058;-68
2022/02/26 04:29:17;;;;;;;19.25;8.85;;;0.60;97.70;;;;;;5036274;28;20074;-68
2022/02/26 04:31:43;;;;;;;17.00;8.90;;;0.60;97.70;;;;;;5035543;28;20017;-68
2022/02/26 04:34:10;;;;;;;19.45;9.10;;;0.60;97.70;;;;;;5035870;28;20079;-68
2022/02/26 04:36:36;;;;;;;19.50;9.40;;;0.60;97.40;;;;;;5035763;28;20029;-68
2022/02/26 04:39:04;;;;;;;17.85;8.32;;;0.60;97.60;;;;;;5036358;28;20351;-68
2022/02/26 04:41:30;;;;;;;21.42;9.68;;;0.60;97.40;;;;;;5036746;28;20044;-68
2022/02/26 04:43:57;;;;;;;36.17;14.93;;;0.60;97.70;;;;;;5034281;28;20029;-68
2022/02/26 04:46:23;;;;;;;21.23;9.57;;;0.70;97.50;;;;;;5034949;28;20110;-68
2022/02/26 04:48:52;;;;;;;22.15;9.45;;;0.70;97.70;;;;;;5035385;28;20036;-68
2022/02/26 04:51:18;;;;;;;27.58;9.52;;;0.60;97.50;;;;;;5032990;28;20026;-67
2022/02/26 04:53:44;;;;;;;26.67;10.65;;;0.60;97.80;;;;;;5030890;28;20025;-68
2022/02/26 04:56:10;;;;;;;23.05;11.60;;;0.60;97.80;;;;;;5035107;28;20307;-68
2022/02/26 04:58:36;;;;;;;22.08;11.48;;;0.60;97.70;;;;;;5034254;28;20022;-68
2022/02/26 05:01:04;;;;;;;22.92;12.60;;;0.50;97.60;;;;;;5035136;28;20026;-68
2022/02/26 05:03:30;;;;;;;23.20;11.18;;;0.50;97.40;;;;;;5028905;28;20033;-68
2022/02/26 05:05:56;;;;;;;27.98;11.77;;;0.50;97.30;;;;;;5035304;28;20313;-69
2022/02/26 05:08:22;;;;;;;23.05;10.30;;;0.40;97.20;;;;;;5035416;28;20083;-68
2022/02/26 05:10:48;;;;;;;25.10;10.18;;;0.40;97.40;;;;;;5035428;28;20025;-68
2022/02/26 05:13:13;;;;;;;22.05;9.93;;;0.50;96.80;;;;;;5034068;28;20025;-67
2022/02/26 05:15:39;;;;;;;22.52;9.93;;;0.50;97.40;;;;;;5034256;28;20393;-68
2022/02/26 05:18:06;;;;;;;25.05;10.05;;;0.50;97.00;;;;;;5034973;28;20041;-68
2022/02/26 05:20:33;;;;;;;23.88;10.32;;;0.50;97.00;;;;;;5035366;28;20025;-68
2022/02/26 05:22:59;;;;;;;22.55;10.05;;;0.50;96.80;;;;;;5027874;28;20052;-67
2022/02/26 05:25:25;;;;;;;21.33;10.68;;;0.50;97.00;;;;;;5034709;28;20029;-68
2022/02/26 05:27:51;;;;;;;29.90;15.43;;;0.50;96.90;;;;;;5034855;28;20473;-68
2022/02/26 05:30:17;;;;;;;28.95;11.55;;;0.50;97.00;;;;;;5033555;28;20034;-68
2022/02/26 05:32:44;;;;;;;23.08;11.68;;;0.50;97.10;;;;;;5035535;28;20026;-67
2022/02/26 05:35:11;;;;;;;31.30;11.35;;;0.50;96.90;;;;;;5034231;28;20030;-68
2022/02/26 05:37:37;;;;;;;24.02;10.88;;;0.50;96.70;;;;;;5034663;28;20056;-68
2022/02/26 05:40:07;;;;;;;27.27;11.50;;;0.50;96.70;;;;;;5035265;28;20025;-68
2022/02/26 05:42:34;;;;;;;25.13;11.48;;;0.50;97.40;;;;;;5032861;28;20106;-68
2022/02/26 05:45:00;;;;;;;24.13;11.60;;;0.40;97.00;;;;;;5033366;28;20028;-68
2022/02/26 05:47:29;;;;;;;21.75;11.07;;;0.50;96.70;;;;;;5034684;28;20065;-68
2022/02/26 05:49:55;;;;;;;26.27;11.23;;;0.50;96.80;;;;;;5033796;28;20021;-68
2022/02/26 05:52:21;;;;;;;29.67;11.20;;;0.50;96.80;;;;;;5035153;28;20037;-68
2022/02/26 05:54:47;;;;;;;25.08;11.20;;;0.40;97.00;;;;;;5035556;28;20108;-68
2022/02/26 05:57:14;;;;;;;23.92;11.13;;;0.40;96.90;;;;;;5033678;28;20061;-67
2022/02/26 05:59:40;;;;;;;22.83;10.45;;;0.40;96.60;;;;;;5032355;28;20033;-68
2022/02/26 06:02:06;;;;;;;28.17;10.70;;;0.40;96.70;;;;;;5034812;28;20021;-68
2022/02/26 06:04:32;;;;;;;22.73;10.48;;;0.40;96.90;;;;;;5034109;28;20029;-69
2022/02/26 06:06:57;;;;;;;19.38;11.23;;;0.40;96.90;;;;;;5034323;28;20025;-68
2022/02/26 06:09:24;;;;;;;27.08;11.85;;;0.40;97.00;;;;;;5037107;28;20031;-67
2022/02/26 06:11:50;;;;;;;22.38;11.20;;;0.40;96.70;;;;;;5034509;28;20032;-68
2022/02/26 06:14:16;;;;;;;24.92;10.25;;;0.40;97.10;;;;;;5015917;28;20037;-68
2022/02/26 06:16:42;;;;;;;29.95;11.57;;;0.40;96.90;;;;;;5032904;28;20116;-68
2022/02/26 06:19:07;;;;;;;23.42;10.95;;;0.40;96.90;;;;;;5038423;28;20025;-68
2022/02/26 06:21:33;;;;;;;23.15;10.57;;;0.40;96.90;;;;;;5034185;28;20053;-68
2022/02/26 06:23:59;;;;;;;27.35;11.85;;;0.50;96.80;;;;;;5034910;28;20022;-68
2022/02/26 06:26:24;;;;;;;24.80;10.85;;;0.50;97.10;;;;;;5033864;28;20116;-68
2022/02/26 06:28:50;;;;;;;29.20;13.25;;;0.50;97.00;;;;;;5031165;28;20034;-68
2022/02/26 06:31:16;;;;;;;22.17;12.23;;;0.60;97.50;;;;;;5033191;28;20025;-68
2022/02/26 06:33:42;;;;;;;24.63;11.88;;;0.60;97.10;;;;;;5034209;28;20426;-68
2022/02/26 06:36:07;;;;;;;27.65;10.50;;;0.60;97.60;;;;;;5034042;28;20072;-68
2022/02/26 06:38:33;;;;;;;20.95;10.93;;;0.60;97.50;;;;;;5034322;28;20060;-67
2022/02/26 06:40:59;;;;;;;29.10;11.20;;;0.70;97.80;;;;;;5033968;28;20053;-68
2022/02/26 06:43:25;;;;;;;26.83;11.20;;;0.70;97.80;;;;;;5032887;28;20425;-68
2022/02/26 06:45:50;;;;;;;24.63;11.30;;;0.70;98.00;;;;;;5034203;28;20049;-68
2022/02/26 06:48:16;;;;;;;24.05;10.48;;;0.80;98.00;;;;;;5034213;28;20022;-68
2022/02/26 06:50:41;;;;;;;24.70;11.88;;;0.70;98.00;;;;;;5034490;28;20033;-69
2022/02/26 06:53:07;;;;;;;24.77;12.10;;;0.80;98.00;;;;;;5033060;28;20032;-67
2022/02/26 06:55:33;;;;;;;32.67;12.13;;;0.80;98.00;;;;;;5036796;28;20108;-68
2022/02/26 06:57:58;;;;;;;37.45;13.27;;;0.80;98.00;;;;;;5038883;28;20402;-68
2022/02/26 07:00:24;;;;;;;37.85;17.35;;;0.80;98.00;;;;;;5036532;28;20319;-68
2022/02/26 07:02:50;;;;;;;26.02;12.80;;;0.90;98.00;;;;;;5037423;28;20466;-67
2022/02/26 07:05:16;;;;;;;21.27;10.45;;;1.00;98.00;;;;;;5037493;28;20017;-67
2022/02/26 07:07:42;;;;;;;27.98;12.35;;;1.00;98.00;;;;;;5036862;28;20096;-67
2022/02/26 07:10:08;;;;;;;27.52;11.38;;;1.00;98.00;;;;;;5036974;28;20041;-67
2022/02/26 07:12:36;;;;;;;25.77;13.68;;;0.90;98.00;;;;;;5038240;28;20049;-67
2022/02/26 07:15:01;;;;;;;25.90;12.65;;;1.00;98.00;;;;;;5036105;28;20029;-68
2022/02/26 07:17:27;;;;;;;27.02;11.88;;;1.00;98.00;;;;;;5037180;28;20075;-68
2022/02/26 07:19:52;;;;;;;26.63;10.85;;;1.10;98.00;;;;;;5037450;28;20017;-68
2022/02/26 07:22:18;;;;;;;25.65;11.50;;;1.10;98.00;;;;;;5035770;28;20033;-67
2022/02/26 07:24:44;;;;;;;27.92;12.02;;;1.20;98.00;;;;;;5034469;28;20343;-68
2022/02/26 07:27:13;;;;;;;22.27;10.00;;;1.10;98.00;;;;;;5036298;28;20320;-68
2022/02/26 07:29:39;;;;;;;21.98;10.52;;;1.20;98.00;;;;;;5035159;28;20079;-68
2022/02/26 07:32:05;;;;;;;23.10;9.75;;;1.20;98.00;;;;;;5037431;28;20033;-68
2022/02/26 07:34:31;;;;;;;20.38;10.07;;;1.10;98.00;;;;;;5037427;28;20026;-68
2022/02/26 07:36:57;;;;;;;19.17;9.50;;;1.20;98.00;;;;;;5026578;28;20159;-67
2022/02/26 07:39:22;;;;;;;24.30;10.13;;;1.20;98.00;;;;;;5036766;28;20108;-68
2022/02/26 07:41:48;;;;;;;25.02;10.95;;;1.20;98.00;;;;;;5037478;28;20101;-68
2022/02/26 07:44:13;;;;;;;15.38;8.13;;;1.20;98.00;;;;;;5036031;28;20040;-68
2022/02/26 07:46:39;;;;;;;24.40;10.13;;;1.20;98.00;;;;;;5036821;28;20026;-68
2022/02/26 07:49:05;;;;;;;26.63;11.60;;;1.20;98.00;;;;;;5036534;28;20441;-68
2022/02/26 07:51:31;;;;;;;27.52;10.80;;;1.20;98.00;;;;;;5037626;28;20093;-67
2022/02/26 07:53:57;;;;;;;22.52;9.20;;;1.40;98.00;;;;;;5036230;28;20033;-67
2022/02/26 07:56:22;;;;;;;24.70;10.43;;;1.50;98.00;;;;;;5035706;28;20040;-68
2022/02/26 07:58:48;;;;;;;27.00;8.48;;;1.50;98.00;;;;;;5036139;28;20056;-68
2022/02/26 08:01:13;;;;;;;20.95;10.25;;;1.60;98.00;;;;;;5047557;28;20076;-68
2022/02/26 08:03:39;;;;;;;25.75;10.80;;;1.70;98.00;;;;;;5036553;28;20021;-68
2022/02/26 08:06:05;;;;;;;19.02;8.75;;;1.60;98.00;;;;;;5036000;28;20025;-67
2022/02/26 08:08:30;;;;;;;20.48;9.18;;;1.60;98.00;;;;;;5041834;28;20055;-68
2022/02/26 08:10:56;;;;;;;19.98;7.82;;;1.60;98.00;;;;;;5036144;28;20105;-67
2022/02/26 08:13:22;;;;;;;23.98;9.30;;;1.60;98.00;;;;;;5044970;28;20029;-68
2022/02/26 08:15:48;;;;;;;20.83;9.43;;;1.50;98.00;;;;;;5036214;28;20300;-68
2022/02/26 08:18:17;;;;;;;21.05;8.95;;;1.50;98.00;;;;;;5036577;28;20300;-69
2022/02/26 08:20:44;;;;;;;25.33;10.23;;;1.60;98.00;;;;;;5039537;28;20365;-67
2022/02/26 08:23:10;;;;;;;18.30;8.00;;;1.70;98.00;;;;;;5038196;28;20040;-68
2022/02/26 08:25:36;;;;;;;22.20;9.73;;;1.70;98.00;;;;;;5042110;28;20084;-68
2022/02/26 08:28:01;;;;;;;24.00;10.93;;;1.70;98.00;;;;;;5036583;28;20437;-68
2022/02/26 08:30:27;;;;;;;25.42;11.02;;;1.70;98.00;;;;;;5034563;28;20057;-67
2022/02/26 08:32:53;;;;;;;25.02;10.38;;;1.70;98.00;;;;;;5036490;28;20108;-66
2022/02/26 08:35:19;;;;;;;24.13;10.73;;;1.80;98.00;;;;;;5036919;28;20048;-67
2022/02/26 08:37:49;;;;;;;24.08;11.80;;;1.90;98.00;;;;;;5035777;28;20030;-68
2022/02/26 08:40:15;;;;;;;25.50;10.18;;;2.00;98.00;;;;;;5036589;28;20044;-68
2022/02/26 08:42:41;;;;;;;23.70;8.55;;;2.30;98.00;;;;;;5035599;28;20052;-67
2022/02/26 08:45:08;;;;;;;27.50;10.77;;;2.40;98.00;;;;;;5035119;28;20112;-68
2022/02/26 08:47:33;;;;;;;19.42;9.38;;;2.60;98.00;;;;;;5041254;28;20414;-68
2022/02/26 08:50:01;;;;;;;29.00;11.05;;;2.80;98.00;;;;;;5041049;28;20112;-68
2022/02/26 08:52:27;;;;;;;27.45;10.52;;;2.90;98.00;;;;;;5040684;28;20426;-68
2022/02/26 08:54:53;;;;;;;20.65;8.80;;;3.00;98.00;;;;;;5036219;28;20041;-68
2022/02/26 08:57:19;;;;;;;21.25;10.10;;;3.10;98.00;;;;;;5035353;28;20430;-67
2022/02/26 08:59:45;;;;;;;23.30;10.13;;;3.30;97.60;;;;;;5034260;28;20033;-68
2022/02/26 09:02:11;;;;;;;20.00;7.80;;;3.20;97.00;;;;;;5036179;28;20053;-68
2022/02/26 09:04:37;;;;;;;15.82;8.20;;;3.10;95.90;;;;;;5035742;28;20438;-66
2022/02/26 09:07:03;;;;;;;22.75;9.30;;;3.00;96.50;;;;;;5037305;28;20041;-67
2022/02/26 09:09:29;;;;;;;19.98;7.13;;;3.30;95.80;;;;;;5033916;28;20029;-66
2022/02/26 09:11:55;;;;;;;21.77;8.18;;;3.50;93.80;;;;;;5036066;28;20032;-67
2022/02/26 09:14:25;;;;;;;18.65;7.28;;;3.70;93.40;;;;;;5034357;28;20032;-67
2022/02/26 09:16:51;;;;;;;14.70;6.20;;;4.10;92.70;;;;;;5031622;28;20330;-67
2022/02/26 09:19:17;;;;;;;21.02;7.15;;;4.60;90.50;;;;;;5034555;28;20100;-66
2022/02/26 09:21:43;;;;;;;23.30;8.27;;;4.60;89.50;;;;;;5036238;28;20337;-68
2022/02/26 09:24:08;;;;;;;23.00;7.78;;;4.40;90.30;;;;;;5038056;28;20022;-67
2022/02/26 09:26:34;;;;;;;26.35;7.68;;;4.10;90.80;;;;;;5037175;28;20046;-67
2022/02/26 09:29:02;;;;;;;17.08;7.85;;;4.00;91.20;;;;;;5035195;28;20036;-68
2022/02/26 09:31:30;;;;;;;17.30;6.60;;;3.90;92.30;;;;;;5035840;28;20294;-67
2022/02/26 09:33:56;;;;;;;18.35;7.10;;;3.80;92.10;;;;;;5034695;28;20084;-67
2022/02/26 09:36:21;;;;;;;17.55;7.28;;;3.70;91.70;;;;;;5034123;28;20088;-65
2022/02/26 09:38:48;;;;;;;17.88;7.90;;;3.60;91.80;;;;;;5034260;28;20431;-67
2022/02/26 09:41:13;;;;;;;29.50;7.82;;;3.70;91.70;;;;;;5033612;28;20024;-67
2022/02/26 09:43:39;;;;;;;18.30;7.35;;;4.00;92.00;;;;;;5032867;28;20418;-67
2022/02/26 09:46:07;;;;;;;15.23;7.63;;;4.10;91.10;;;;;;5033161;28;20028;-67
2022/02/26 09:48:33;;;;;;;15.35;6.80;;;4.20;90.10;;;;;;5035259;28;20032;-65
2022/02/26 09:50:59;;;;;;;16.77;7.80;;;4.50;90.40;;;;;;5041370;28;20075;-67
2022/02/26 09:53:26;;;;;;;17.15;6.97;;;5.00;87.60;;;;;;5038558;28;20322;-69
2022/02/26 09:55:55;;;;;;;13.82;6.50;;;5.40;85.90;;;;;;5032552;28;20064;-68
2022/02/26 09:58:22;;;;;;;18.80;7.07;;;5.90;85.20;;;;;;5033360;28;20065;-66
2022/02/26 10:00:47;;;;;;;13.63;5.95;;;7.00;82.70;;;;;;5034361;28;20080;-66
2022/02/26 10:03:30;;;;;;;14.98;6.88;;;7.20;79.40;;;;;;5034920;28;20017;-66
2022/02/26 10:06:09;;;;;;;13.65;5.80;;;6.70;79.90;;;;;;5032013;28;20064;-66
2022/02/26 10:08:43;;;;;;;11.02;3.88;;;6.40;79.50;;;;;;5033933;28;20018;-67
2022/02/26 10:11:32;;;;;;;12.98;3.42;;;6.80;75.60;;;;;;5036597;28;20083;-68
2022/02/26 10:14:10;;;;;;;11.13;3.17;;;8.50;73.40;;;;;;5032159;28;20033;-67
2022/02/26 10:16:52;;;;;;;10.10;3.50;;;9.50;69.40;;;;;;5035058;28;20160;-68
2022/02/26 10:19:23;;;;;;;8.02;2.88;;;9.70;68.20;;;;;;5033201;28;20052;-67
2022/02/26 10:21:50;;;;;;;9.27;2.88;;;9.80;66.20;;;;;;5035188;28;20030;-67
2022/02/26 10:24:20;;;;;;;7.25;2.85;;;8.80;66.30;;;;;;5035416;28;20014;-67
2022/02/26 10:26:54;;;;;;;6.82;2.28;;;8.20;67.60;;;;;;5017230;28;20076;-67
2022/02/26 10:29:22;;;;;;;9.07;2.38;;;8.70;67.20;;;;;;5033593;28;20063;-67
2022/02/26 10:31:54;;;;;;;5.30;1.80;;;8.70;67.90;;;;;;5038841;28;20100;-67
2022/02/26 10:34:31;;;;;;;6.32;1.95;;;9.30;65.30;;;;;;5019924;28;20447;-67
2022/02/26 10:37:12;;;;;;;7.72;2.60;;;10.00;65.20;;;;;;5039234;28;20037;-67
2022/02/26 10:39:40;;;;;;;9.20;2.80;;;10.10;63.80;;;;;;5032484;28;20414;-67
2022/02/26 10:42:16;;;;;;;8.82;2.67;;;8.80;64.40;;;;;;5038118;28;20029;-67
2022/02/26 10:44:41;;;;;;;6.57;2.47;;;7.50;66.50;;;;;;5042702;28;20124;-67
2022/02/26 10:47:11;;;;;;;7.15;2.30;;;6.80;69.80;;;;;;5040031;28;20149;-67
2022/02/26 10:49:47;;;;;;;9.80;2.53;;;6.40;72.70;;;;;;5037514;28;20324;-66
2022/02/26 10:52:16;;;;;;;7.45;2.92;;;6.40;72.40;;;;;;5037414;28;20025;-67
2022/02/26 10:54:49;;;;;;;9.63;3.47;;;6.40;71.30;;;;;;5036145;28;20019;-65
2022/02/26 10:57:15;;;;;;;11.20;3.30;;;6.30;71.40;;;;;;5036577;28;20361;-66
2022/02/26 10:59:43;;;;;;;7.88;3.40;;;6.80;72.40;;;;;;5036117;28;20030;-67
2022/02/26 11:02:13;;;;;;;10.35;4.07;;;7.50;70.90;;;;;;5050055;28;20017;-67
2022/02/26 11:04:39;;;;;;;10.80;2.85;;;7.50;70.60;;;;;;5038246;28;20024;-67
2022/02/26 11:07:05;;;;;;;10.20;4.18;;;6.90;69.50;;;;;;5037923;28;20052;-67
2022/02/26 11:09:32;;;;;;;8.82;4.18;;;6.50;72.70;;;;;;5038868;28;20040;-67
2022/02/26 11:11:59;;;;;;;11.65;4.68;;;5.90;74.90;;;;;;5035812;28;20037;-66
2022/02/26 11:14:27;;;;;;;10.88;4.40;;;5.60;76.10;;;;;;5041785;28;20025;-67
2022/02/26 11:16:58;;;;;;;11.65;4.55;;;5.40;75.60;;;;;;5058450;28;20028;-66
2022/02/26 11:19:26;;;;;;;9.90;3.70;;;5.30;76.20;;;;;;5049638;28;20487;-68
2022/02/26 11:21:52;;;;;;;14.55;3.88;;;5.60;76.40;;;;;;5036666;28;20156;-67
2022/02/26 11:24:19;;;;;;;11.98;4.10;;;5.80;74.50;;;;;;5037009;28;20025;-67
2022/02/26 11:26:46;;;;;;;11.13;3.65;;;6.20;74.30;;;;;;5036488;28;20045;-66
2022/02/26 11:29:17;;;;;;;10.35;4.35;;;6.90;73.70;;;;;;5035104;28;20079;-67
2022/02/26 11:32:04;;;;;;;11.68;3.92;;;8.40;71.20;;;;;;5037681;28;20415;-67
2022/02/26 11:34:31;;;;;;;11.80;4.22;;;9.30;68.00;;;;;;5038240;28;20021;-67
2022/02/26 11:37:04;;;;;;;14.18;3.92;;;9.50;67.70;;;;;;5036962;28;20060;-67
2022/02/26 11:39:36;;;;;;;5.70;2.20;;;9.40;68.20;;;;;;5038006;28;20040;-67
2022/02/26 11:42:24;;;;;;;9.05;2.50;;;9.50;65.70;;;;;;5037135;28;20021;-68
2022/02/26 11:45:29;;;;;;;10.18;2.28;;;8.80;63.00;;;;;;5036785;28;20109;-67
2022/02/26 11:47:57;;;;;;;6.68;2.20;;;7.90;64.80;;;;;;5017849;28;20431;-67
2022/02/26 11:50:38;;;;;;;8.05;2.30;;;8.10;66.40;;;;;;5037567;28;20030;-67
2022/02/26 11:53:16;;;;;;;7.47;2.20;;;8.00;64.70;;;;;;5037788;28;20373;-67
2022/02/26 11:55:43;;;;;;;8.52;3.00;;;7.70;65.20;;;;;;5036044;28;20083;-65
2022/02/26 11:58:20;;;;;;;7.85;2.30;;;7.30;67.10;;;;;;5034912;28;20030;-67
2022/02/26 12:00:54;;;;;;;9.40;2.38;;;8.00;66.30;;;;;;5037578;28;20025;-65
2022/02/26 12:03:34;;;;;;;6.15;2.42;;;8.50;63.90;;;;;;5037722;28;20112;-66
2022/02/26 12:06:09;;;;;;;8.35;2.67;;;7.90;65.80;;;;;;5037214;28;20030;-66
2022/02/26 12:08:45;;;;;;;7.70;2.55;;;7.40;65.00;;;;;;5036471;28;20024;-65
2022/02/26 12:11:15;;;;;;;10.10;3.30;;;7.10;66.10;;;;;;5034237;28;20108;-66
2022/02/26 12:13:42;;;;;;;6.55;2.80;;;6.80;66.50;;;;;;5034193;28;20697;-66
2022/02/26 12:16:17;;;;;;;8.35;2.60;;;6.20;68.70;;;;;;5036419;28;20025;-66
2022/02/26 12:18:47;;;;;;;9.40;3.30;;;5.70;69.70;;;;;;5036210;28;20033;-67
2022/02/26 12:21:16;;;;;;;10.55;2.75;;;6.40;69.70;;;;;;5037094;28;20021;-67
2022/02/26 12:23:44;;;;;;;12.10;4.30;;;7.70;67.30;;;;;;5036737;28;20044;-67
2022/02/26 12:26:11;;;;;;;13.10;2.88;;;8.30;64.60;;;;;;5035043;28;20041;-67
2022/02/26 12:28:39;;;;;;;11.02;3.80;;;9.10;65.60;;;;;;5034508;28;20049;-67
2022/02/26 12:31:07;;;;;;;9.30;3.40;;;9.30;66.20;;;;;;5026353;28;20045;-66
2022/02/26 12:33:36;;;;;;;8.02;2.50;;;9.70;64.80;;;;;;5036704;28;20021;-67
2022/02/26 12:36:08;;;;;;;9.38;2.47;;;9.90;63.00;;;;;;5034438;28;20057;-67
2022/02/26 12:38:34;;;;;;;10.25;3.60;;;9.60;63.90;;;;;;5033625;28;20047;-67
2022/02/26 12:41:01;;;;;;;12.25;3.13;;;9.40;62.40;;;;;;5035758;28;20100;-66
2022/02/26 12:43:30;;;;;;;8.90;3.20;;;9.00;64.40;;;;;;5036226;28;20342;-68
2022/02/26 12:45:56;;;;;;;10.02;3.15;;;8.10;64.70;;;;;;5035550;28;20029;-67
2022/02/26 12:48:23;;;;;;;10.57;3.20;;;7.70;67.10;;;;;;5036498;28;20323;-67
2022/02/26 12:50:50;;;;;;;9.35;3.00;;;8.00;67.80;;;;;;5036362;28;20326;-67